sensor_id;sensor_type;location;lat;lon;timestamp;pressure;altitude;pressure_sealevel;temperature;humidity
24280;BME280;12395;42.808;23.408;2023-06-22T00:00:12;95318.53;;;16.50;100.00
24280;BME280;12395;42.808;23.408;2023-06-22T00:02:39;95314.88;;;16.45;100.00
24280;BME280;12395;42.808;23.408;2023-06-22T00:05:07;95306.97;;;16.38;100.00
24280;BME280;12395;42.808;23.408;2023-06-22T00:07:33;95311.41;;;16.44;100.00
24280;BME280;12395;42.808;23.408;2023-06-22T00:09:58;95296.75;;;16.35;100.00
24280;BME280;12395;42.808;23.408;2023-06-22T00:12:28;95322.22;;;16.38;100.00
24280;BME280;12395;42.808;23.408;2023-06-22T00:14:54;95306.28;;;16.31;100.00
24280;BME280;12395;42.808;23.408;2023-06-22T00:17:22;95303.72;;;16.36;100.00
24280;BME280;12395;42.808;23.408;2023-06-22T00:19:47;95309.88;;;16.48;100.00
24280;BME280;12395;42.808;23.408;2023-06-22T00:22:18;95305.25;;;16.44;100.00
24280;BME280;12395;42.808;23.408;2023-06-22T00:24:46;95293.72;;;16.32;100.00
24280;BME280;12395;42.808;23.408;2023-06-22T00:27:19;95306.88;;;16.33;100.00
24280;BME280;12395;42.808;23.408;2023-06-22T00:29:46;95302.44;;;16.39;100.00
24280;BME280;12395;42.808;23.408;2023-06-22T00:32:14;95308.47;;;16.34;100.00
24280;BME280;12395;42.808;23.408;2023-06-22T00:34:42;95310.47;;;16.27;100.00
24280;BME280;12395;42.808;23.408;2023-06-22T00:37:10;95303.72;;;16.13;100.00
24280;BME280;12395;42.808;23.408;2023-06-22T00:39:38;95296.50;;;16.13;100.00
24280;BME280;12395;42.808;23.408;2023-06-22T00:42:06;95292.44;;;16.11;100.00
24280;BME280;12395;42.808;23.408;2023-06-22T00:44:49;95309.78;;;16.20;100.00
24280;BME280;12395;42.808;23.408;2023-06-22T00:47:24;95303.25;;;16.16;100.00
24280;BME280;12395;42.808;23.408;2023-06-22T00:49:59;95300.78;;;16.14;100.00
24280;BME280;12395;42.808;23.408;2023-06-22T00:52:35;95301.03;;;16.13;100.00
24280;BME280;12395;42.808;23.408;2023-06-22T00:55:04;95310.34;;;16.22;100.00
24280;BME280;12395;42.808;23.408;2023-06-22T00:57:30;95308.13;;;16.07;100.00
24280;BME280;12395;42.808;23.408;2023-06-22T00:59:58;95306.28;;;16.08;100.00
24280;BME280;12395;42.808;23.408;2023-06-22T01:02:43;95316.16;;;16.07;100.00
24280;BME280;12395;42.808;23.408;2023-06-22T01:05:15;95311.72;;;16.13;100.00
24280;BME280;12395;42.808;23.408;2023-06-22T01:13:03;95314.31;;;16.31;100.00
24280;BME280;12395;42.808;23.408;2023-06-22T01:15:55;95319.31;;;16.39;100.00
24280;BME280;12395;42.808;23.408;2023-06-22T01:18:25;95320.59;;;16.48;100.00
24280;BME280;12395;42.808;23.408;2023-06-22T01:21:03;95311.75;;;16.48;100.00
24280;BME280;12395;42.808;23.408;2023-06-22T01:23:54;95313.84;;;16.46;100.00
24280;BME280;12395;42.808;23.408;2023-06-22T01:28:58;95318.03;;;16.30;100.00
24280;BME280;12395;42.808;23.408;2023-06-22T01:31:26;95320.69;;;16.30;100.00
24280;BME280;12395;42.808;23.408;2023-06-22T01:34:01;95328.63;;;16.25;100.00
24280;BME280;12395;42.808;23.408;2023-06-22T01:36:31;95331.25;;;16.13;100.00
24280;BME280;12395;42.808;23.408;2023-06-22T01:39:05;95329.38;;;16.02;100.00
24280;BME280;12395;42.808;23.408;2023-06-22T01:41:39;95318.09;;;15.89;100.00
24280;BME280;12395;42.808;23.408;2023-06-22T01:44:08;95325.06;;;15.90;100.00
24280;BME280;12395;42.808;23.408;2023-06-22T01:46:42;95318.56;;;15.86;100.00
24280;BME280;12395;42.808;23.408;2023-06-22T01:52:04;95329.00;;;15.76;100.00
24280;BME280;12395;42.808;23.408;2023-06-22T01:54:32;95335.47;;;15.68;100.00
24280;BME280;12395;42.808;23.408;2023-06-22T01:57:01;95349.31;;;15.65;100.00
24280;BME280;12395;42.808;23.408;2023-06-22T01:59:34;95343.56;;;15.62;100.00
24280;BME280;12395;42.808;23.408;2023-06-22T02:04:58;95351.00;;;15.60;100.00
24280;BME280;12395;42.808;23.408;2023-06-22T02:07:32;95338.56;;;15.54;100.00
24280;BME280;12395;42.808;23.408;2023-06-22T02:10:04;95348.56;;;15.58;100.00
24280;BME280;12395;42.808;23.408;2023-06-22T02:12:33;95340.78;;;15.57;100.00
24280;BME280;12395;42.808;23.408;2023-06-22T02:15:12;95333.13;;;15.42;100.00
24280;BME280;12395;42.808;23.408;2023-06-22T02:17:50;95345.69;;;15.41;100.00
24280;BME280;12395;42.808;23.408;2023-06-22T02:20:23;95341.13;;;15.30;100.00
24280;BME280;12395;42.808;23.408;2023-06-22T02:22:54;95337.31;;;15.38;100.00
24280;BME280;12395;42.808;23.408;2023-06-22T02:25:19;95338.56;;;15.35;100.00
24280;BME280;12395;42.808;23.408;2023-06-22T02:27:45;95339.31;;;15.42;100.00
24280;BME280;12395;42.808;23.408;2023-06-22T02:30:34;95326.63;;;15.38;100.00
24280;BME280;12395;42.808;23.408;2023-06-22T02:33:02;95313.25;;;15.26;100.00
24280;BME280;12395;42.808;23.408;2023-06-22T02:35:38;95331.16;;;15.37;100.00
24280;BME280;12395;42.808;23.408;2023-06-22T02:38:14;95329.53;;;15.36;100.00
24280;BME280;12395;42.808;23.408;2023-06-22T02:40:45;95322.88;;;15.27;100.00
24280;BME280;12395;42.808;23.408;2023-06-22T02:43:13;95335.22;;;15.40;100.00
24280;BME280;12395;42.808;23.408;2023-06-22T02:45:51;95329.28;;;15.38;100.00
24280;BME280;12395;42.808;23.408;2023-06-22T02:48:24;95337.31;;;15.38;100.00
24280;BME280;12395;42.808;23.408;2023-06-22T02:50:59;95323.63;;;15.16;100.00
24280;BME280;12395;42.808;23.408;2023-06-22T02:53:24;95321.94;;;15.22;100.00
24280;BME280;12395;42.808;23.408;2023-06-22T02:55:49;95335.53;;;15.32;100.00
24280;BME280;12395;42.808;23.408;2023-06-22T02:58:22;95347.31;;;15.42;100.00
24280;BME280;12395;42.808;23.408;2023-06-22T03:01:15;95348.38;;;15.41;100.00
24280;BME280;12395;42.808;23.408;2023-06-22T03:03:49;95346.22;;;15.50;100.00
24280;BME280;12395;42.808;23.408;2023-06-22T03:06:17;95337.63;;;15.48;100.00
24280;BME280;12395;42.808;23.408;2023-06-22T03:08:50;95333.31;;;15.47;100.00
24280;BME280;12395;42.808;23.408;2023-06-22T03:11:18;95350.19;;;15.59;100.00
24280;BME280;12395;42.808;23.408;2023-06-22T03:13:46;95349.25;;;15.54;100.00
24280;BME280;12395;42.808;23.408;2023-06-22T03:16:16;95355.53;;;15.59;100.00
24280;BME280;12395;42.808;23.408;2023-06-22T03:18:54;95347.84;;;15.51;100.00
24280;BME280;12395;42.808;23.408;2023-06-22T03:21:28;95362.50;;;15.60;100.00
24280;BME280;12395;42.808;23.408;2023-06-22T03:23:54;95368.69;;;15.61;100.00
24280;BME280;12395;42.808;23.408;2023-06-22T03:26:24;95378.78;;;15.70;100.00
24280;BME280;12395;42.808;23.408;2023-06-22T03:28:59;95380.69;;;15.81;100.00
24280;BME280;12395;42.808;23.408;2023-06-22T03:31:39;95365.09;;;15.78;100.00
24280;BME280;12395;42.808;23.408;2023-06-22T03:34:09;95370.84;;;15.93;100.00
24280;BME280;12395;42.808;23.408;2023-06-22T03:36:38;95374.00;;;16.02;100.00
24280;BME280;12395;42.808;23.408;2023-06-22T03:39:42;95379.63;;;16.23;100.00
24280;BME280;12395;42.808;23.408;2023-06-22T03:42:33;95375.69;;;16.26;100.00
24280;BME280;12395;42.808;23.408;2023-06-22T03:45:09;95361.97;;;16.34;100.00
24280;BME280;12395;42.808;23.408;2023-06-22T03:47:34;95384.19;;;16.35;100.00
24280;BME280;12395;42.808;23.408;2023-06-22T03:50:03;95372.75;;;16.28;100.00
24280;BME280;12395;42.808;23.408;2023-06-22T03:52:41;95384.88;;;16.30;100.00
24280;BME280;12395;42.808;23.408;2023-06-22T03:55:26;95385.44;;;16.32;100.00
24280;BME280;12395;42.808;23.408;2023-06-22T03:57:52;95390.34;;;16.35;100.00
24280;BME280;12395;42.808;23.408;2023-06-22T04:00:27;95371.84;;;16.22;100.00
24280;BME280;12395;42.808;23.408;2023-06-22T04:03:00;95384.53;;;16.27;100.00
24280;BME280;12395;42.808;23.408;2023-06-22T04:05:33;95393.94;;;16.29;100.00
24280;BME280;12395;42.808;23.408;2023-06-22T04:08:06;95375.81;;;16.31;100.00
24280;BME280;12395;42.808;23.408;2023-06-22T04:10:49;95371.84;;;16.45;100.00
24280;BME280;12395;42.808;23.408;2023-06-22T04:13:17;95395.03;;;16.74;100.00
24280;BME280;12395;42.808;23.408;2023-06-22T04:15:52;95388.41;;;16.88;100.00
24280;BME280;12395;42.808;23.408;2023-06-22T04:18:38;95368.84;;;17.00;100.00
24280;BME280;12395;42.808;23.408;2023-06-22T04:21:24;95374.84;;;17.30;100.00
24280;BME280;12395;42.808;23.408;2023-06-22T04:24:00;95379.75;;;18.51;100.00
24280;BME280;12395;42.808;23.408;2023-06-22T04:26:25;95388.81;;;19.59;100.00
24280;BME280;12395;42.808;23.408;2023-06-22T04:28:50;95372.84;;;20.23;94.44
24280;BME280;12395;42.808;23.408;2023-06-22T04:31:19;95374.50;;;20.60;90.94
24280;BME280;12395;42.808;23.408;2023-06-22T04:33:45;95383.19;;;21.09;86.39
24280;BME280;12395;42.808;23.408;2023-06-22T04:36:10;95385.78;;;22.13;82.05
24280;BME280;12395;42.808;23.408;2023-06-22T04:38:39;95402.25;;;23.27;76.46
24280;BME280;12395;42.808;23.408;2023-06-22T04:41:04;95380.88;;;23.46;74.12
24280;BME280;12395;42.808;23.408;2023-06-22T04:43:29;95394.44;;;23.06;75.36
24280;BME280;12395;42.808;23.408;2023-06-22T04:45:56;95394.72;;;22.34;77.28
24280;BME280;12395;42.808;23.408;2023-06-22T04:48:22;95395.31;;;21.69;82.50
24280;BME280;12395;42.808;23.408;2023-06-22T04:50:47;95404.88;;;21.29;85.58
24280;BME280;12395;42.808;23.408;2023-06-22T04:53:12;95406.81;;;21.02;87.38
24280;BME280;12395;42.808;23.408;2023-06-22T04:55:39;95367.22;;;20.61;88.64
24280;BME280;12395;42.808;23.408;2023-06-22T04:58:07;95408.75;;;20.70;90.29
24280;BME280;12395;42.808;23.408;2023-06-22T05:00:32;95387.34;;;20.53;91.17
24280;BME280;12395;42.808;23.408;2023-06-22T05:03:01;95388.97;;;20.54;92.32
24280;BME280;12395;42.808;23.408;2023-06-22T05:05:28;95396.88;;;20.66;92.55
24280;BME280;12395;42.808;23.408;2023-06-22T05:07:56;95377.72;;;20.62;92.42
24280;BME280;12395;42.808;23.408;2023-06-22T05:10:25;95399.59;;;20.71;93.01
24280;BME280;12395;42.808;23.408;2023-06-22T05:12:50;95407.41;;;20.72;93.76
24280;BME280;12395;42.808;23.408;2023-06-22T05:15:16;95396.38;;;20.69;92.58
24280;BME280;12395;42.808;23.408;2023-06-22T05:17:44;95387.66;;;20.57;91.46
24280;BME280;12395;42.808;23.408;2023-06-22T05:20:13;95412.59;;;20.79;90.82
24280;BME280;12395;42.808;23.408;2023-06-22T05:22:39;95416.97;;;20.90;90.98
24280;BME280;12395;42.808;23.408;2023-06-22T05:25:09;95407.84;;;20.91;90.51
24280;BME280;12395;42.808;23.408;2023-06-22T05:27:35;95422.19;;;21.02;90.35
24280;BME280;12395;42.808;23.408;2023-06-22T05:30:05;95420.38;;;21.07;90.47
24280;BME280;12395;42.808;23.408;2023-06-22T05:32:31;95425.56;;;21.19;89.38
24280;BME280;12395;42.808;23.408;2023-06-22T05:34:57;95411.25;;;21.13;89.71
24280;BME280;12395;42.808;23.408;2023-06-22T05:37:22;95422.09;;;21.23;89.57
24280;BME280;12395;42.808;23.408;2023-06-22T05:39:48;95420.50;;;21.32;90.19
24280;BME280;12395;42.808;23.408;2023-06-22T05:42:13;95413.53;;;21.36;88.91
24280;BME280;12395;42.808;23.408;2023-06-22T05:44:39;95424.66;;;21.50;89.50
24280;BME280;12395;42.808;23.408;2023-06-22T05:47:06;95420.94;;;21.61;89.54
24280;BME280;12395;42.808;23.408;2023-06-22T05:49:32;95420.66;;;21.63;88.18
24280;BME280;12395;42.808;23.408;2023-06-22T05:51:58;95426.66;;;21.75;85.15
24280;BME280;12395;42.808;23.408;2023-06-22T05:54:25;95416.91;;;21.69;86.39
24280;BME280;12395;42.808;23.408;2023-06-22T05:56:50;95408.28;;;21.67;85.03
24280;BME280;12395;42.808;23.408;2023-06-22T05:59:16;95399.63;;;21.65;86.42
24280;BME280;12395;42.808;23.408;2023-06-22T06:01:41;95423.47;;;21.83;85.93
24280;BME280;12395;42.808;23.408;2023-06-22T06:04:07;95422.69;;;21.92;87.52
24280;BME280;12395;42.808;23.408;2023-06-22T06:06:33;95408.97;;;22.04;87.23
24280;BME280;12395;42.808;23.408;2023-06-22T06:09:00;95413.56;;;22.13;87.63
24280;BME280;12395;42.808;23.408;2023-06-22T06:11:25;95403.88;;;22.17;85.30
24280;BME280;12395;42.808;23.408;2023-06-22T06:13:51;95417.63;;;22.16;84.72
24280;BME280;12395;42.808;23.408;2023-06-22T06:16:16;95426.84;;;22.25;86.53
24280;BME280;12395;42.808;23.408;2023-06-22T06:18:42;95429.00;;;22.33;85.78
24280;BME280;12395;42.808;23.408;2023-06-22T06:21:07;95427.94;;;22.39;85.42
24280;BME280;12395;42.808;23.408;2023-06-22T06:23:32;95431.75;;;22.43;82.93
24280;BME280;12395;42.808;23.408;2023-06-22T06:25:58;95427.41;;;22.32;83.45
24280;BME280;12395;42.808;23.408;2023-06-22T06:28:24;95432.25;;;22.35;83.54
24280;BME280;12395;42.808;23.408;2023-06-22T06:30:50;95423.63;;;22.43;85.29
24280;BME280;12395;42.808;23.408;2023-06-22T06:33:17;95406.88;;;22.46;81.91
24280;BME280;12395;42.808;23.408;2023-06-22T06:35:42;95423.13;;;22.86;81.77
24280;BME280;12395;42.808;23.408;2023-06-22T06:38:07;95430.38;;;23.31;82.09
24280;BME280;12395;42.808;23.408;2023-06-22T06:40:33;95435.16;;;23.74;80.12
24280;BME280;12395;42.808;23.408;2023-06-22T06:42:58;95428.78;;;24.14;76.11
24280;BME280;12395;42.808;23.408;2023-06-22T06:45:25;95435.88;;;24.49;74.50
24280;BME280;12395;42.808;23.408;2023-06-22T06:47:52;95428.06;;;24.81;71.43
24280;BME280;12395;42.808;23.408;2023-06-22T06:50:18;95430.72;;;25.20;70.81
24280;BME280;12395;42.808;23.408;2023-06-22T06:52:44;95406.38;;;25.39;69.37
24280;BME280;12395;42.808;23.408;2023-06-22T06:55:10;95425.94;;;25.64;68.35
24280;BME280;12395;42.808;23.408;2023-06-22T06:57:37;95416.69;;;25.89;68.48
24280;BME280;12395;42.808;23.408;2023-06-22T07:00:07;95419.22;;;26.04;67.33
24280;BME280;12395;42.808;23.408;2023-06-22T07:02:38;95418.41;;;26.03;65.01
24280;BME280;12395;42.808;23.408;2023-06-22T07:05:05;95418.78;;;25.97;64.68
24280;BME280;12395;42.808;23.408;2023-06-22T07:07:30;95424.72;;;25.99;67.53
24280;BME280;12395;42.808;23.408;2023-06-22T07:09:56;95401.34;;;25.79;66.14
24280;BME280;12395;42.808;23.408;2023-06-22T07:12:21;95403.38;;;25.69;66.90
24280;BME280;12395;42.808;23.408;2023-06-22T07:14:46;95406.06;;;25.69;69.22
24280;BME280;12395;42.808;23.408;2023-06-22T07:17:12;95387.38;;;25.39;67.48
24280;BME280;12395;42.808;23.408;2023-06-22T07:19:37;95410.41;;;25.46;67.08
24280;BME280;12395;42.808;23.408;2023-06-22T07:22:03;95411.59;;;25.35;67.00
24280;BME280;12395;42.808;23.408;2023-06-22T07:24:28;95416.38;;;25.48;66.14
24280;BME280;12395;42.808;23.408;2023-06-22T07:26:54;95427.78;;;25.69;66.00
24280;BME280;12395;42.808;23.408;2023-06-22T07:29:20;95434.16;;;25.59;65.07
24280;BME280;12395;42.808;23.408;2023-06-22T07:31:46;95421.06;;;25.43;67.89
24280;BME280;12395;42.808;23.408;2023-06-22T07:34:12;95414.69;;;25.52;70.78
24280;BME280;12395;42.808;23.408;2023-06-22T07:36:38;95420.97;;;25.71;70.46
24280;BME280;12395;42.808;23.408;2023-06-22T07:39:03;95412.66;;;25.86;71.50
24280;BME280;12395;42.808;23.408;2023-06-22T07:41:29;95425.38;;;26.15;69.78
24280;BME280;12395;42.808;23.408;2023-06-22T07:43:55;95418.41;;;26.03;67.08
24280;BME280;12395;42.808;23.408;2023-06-22T07:46:20;95412.00;;;25.94;65.96
24280;BME280;12395;42.808;23.408;2023-06-22T07:48:46;95404.38;;;25.96;67.62
24280;BME280;12395;42.808;23.408;2023-06-22T07:51:11;95419.13;;;26.14;64.79
24280;BME280;12395;42.808;23.408;2023-06-22T07:53:43;95420.50;;;26.12;64.30
24280;BME280;12395;42.808;23.408;2023-06-22T07:56:12;95409.75;;;26.01;65.89
24280;BME280;12395;42.808;23.408;2023-06-22T07:58:38;95395.22;;;25.69;64.18
24280;BME280;12395;42.808;23.408;2023-06-22T08:01:03;95411.84;;;25.86;65.98
24280;BME280;12395;42.808;23.408;2023-06-22T08:03:30;95408.31;;;25.85;65.95
24280;BME280;12395;42.808;23.408;2023-06-22T08:05:55;95410.50;;;25.83;66.98
24280;BME280;12395;42.808;23.408;2023-06-22T08:08:21;95369.59;;;25.56;67.10
24280;BME280;12395;42.808;23.408;2023-06-22T08:10:46;95360.94;;;25.54;69.67
24280;BME280;12395;42.808;23.408;2023-06-22T08:13:12;95365.34;;;25.69;68.45
24280;BME280;12395;42.808;23.408;2023-06-22T08:15:37;95399.63;;;26.07;65.28
24280;BME280;12395;42.808;23.408;2023-06-22T08:18:02;95373.66;;;26.20;62.81
24280;BME280;12395;42.808;23.408;2023-06-22T08:20:28;95396.34;;;26.66;61.61
24280;BME280;12395;42.808;23.408;2023-06-22T08:22:54;95401.69;;;26.71;60.74
24280;BME280;12395;42.808;23.408;2023-06-22T08:25:20;95383.44;;;26.77;62.22
24280;BME280;12395;42.808;23.408;2023-06-22T08:27:47;95412.75;;;27.12;62.46
24280;BME280;12395;42.808;23.408;2023-06-22T08:30:13;95407.34;;;27.25;61.19
24280;BME280;12395;42.808;23.408;2023-06-22T08:32:39;95413.78;;;27.29;60.68
24280;BME280;12395;42.808;23.408;2023-06-22T08:35:05;95391.59;;;27.09;62.01
24280;BME280;12395;42.808;23.408;2023-06-22T08:37:33;95380.66;;;26.82;64.17
24280;BME280;12395;42.808;23.408;2023-06-22T08:40:00;95407.09;;;26.76;65.44
24280;BME280;12395;42.808;23.408;2023-06-22T08:42:40;95376.59;;;26.42;65.76
24280;BME280;12395;42.808;23.408;2023-06-22T08:45:06;95380.38;;;26.27;66.06
24280;BME280;12395;42.808;23.408;2023-06-22T08:47:32;95384.47;;;26.25;66.79
24280;BME280;12395;42.808;23.408;2023-06-22T08:49:57;95384.78;;;26.23;66.50
24280;BME280;12395;42.808;23.408;2023-06-22T08:52:24;95384.53;;;26.20;68.33
24280;BME280;12395;42.808;23.408;2023-06-22T08:54:50;95385.78;;;26.27;67.65
24280;BME280;12395;42.808;23.408;2023-06-22T08:57:15;95378.09;;;26.34;70.36
24280;BME280;12395;42.808;23.408;2023-06-22T08:59:41;95362.94;;;26.28;68.24
24280;BME280;12395;42.808;23.408;2023-06-22T09:02:07;95348.56;;;26.28;69.63
24280;BME280;12395;42.808;23.408;2023-06-22T09:04:33;95360.47;;;26.32;68.56
24280;BME280;12395;42.808;23.408;2023-06-22T09:07:00;95362.88;;;26.33;65.16
24280;BME280;12395;42.808;23.408;2023-06-22T09:09:26;95370.72;;;26.35;67.14
24280;BME280;12395;42.808;23.408;2023-06-22T09:11:52;95380.50;;;26.54;67.84
24280;BME280;12395;42.808;23.408;2023-06-22T09:14:18;95369.97;;;26.48;64.62
24280;BME280;12395;42.808;23.408;2023-06-22T09:16:43;95375.88;;;26.55;65.36
24280;BME280;12395;42.808;23.408;2023-06-22T09:19:09;95359.25;;;26.56;65.07
24280;BME280;12395;42.808;23.408;2023-06-22T09:21:34;95363.59;;;26.57;64.07
24280;BME280;12395;42.808;23.408;2023-06-22T09:24:00;95374.91;;;26.64;65.59
24280;BME280;12395;42.808;23.408;2023-06-22T09:26:25;95366.00;;;26.59;64.46
24280;BME280;12395;42.808;23.408;2023-06-22T09:28:51;95372.69;;;26.66;64.94
24280;BME280;12395;42.808;23.408;2023-06-22T09:31:16;95382.44;;;26.86;63.48
24280;BME280;12395;42.808;23.408;2023-06-22T09:33:43;95385.41;;;27.03;63.98
24280;BME280;12395;42.808;23.408;2023-06-22T09:36:10;95381.94;;;27.30;64.83
24280;BME280;12395;42.808;23.408;2023-06-22T09:38:36;95382.59;;;27.40;61.88
24280;BME280;12395;42.808;23.408;2023-06-22T09:41:02;95358.91;;;27.55;62.99
24280;BME280;12395;42.808;23.408;2023-06-22T09:43:28;95369.91;;;27.77;59.12
24280;BME280;12395;42.808;23.408;2023-06-22T09:45:53;95359.00;;;27.77;59.60
24280;BME280;12395;42.808;23.408;2023-06-22T09:48:19;95364.63;;;27.94;59.53
24280;BME280;12395;42.808;23.408;2023-06-22T09:50:44;95353.75;;;27.94;61.01
24280;BME280;12395;42.808;23.408;2023-06-22T09:53:10;95361.22;;;28.02;56.66
24280;BME280;12395;42.808;23.408;2023-06-22T09:55:35;95348.28;;;27.94;58.94
24280;BME280;12395;42.808;23.408;2023-06-22T09:58:00;95364.44;;;28.04;60.23
24280;BME280;12395;42.808;23.408;2023-06-22T10:00:26;95355.91;;;27.97;58.47
24280;BME280;12395;42.808;23.408;2023-06-22T10:02:52;95350.81;;;28.04;60.21
24280;BME280;12395;42.808;23.408;2023-06-22T10:05:17;95351.81;;;28.08;59.65
24280;BME280;12395;42.808;23.408;2023-06-22T10:07:43;95346.66;;;28.20;59.45
24280;BME280;12395;42.808;23.408;2023-06-22T10:10:10;95347.34;;;28.25;57.50
24280;BME280;12395;42.808;23.408;2023-06-22T10:12:35;95351.63;;;28.18;58.65
24280;BME280;12395;42.808;23.408;2023-06-22T10:15:01;95337.59;;;28.11;56.38
24280;BME280;12395;42.808;23.408;2023-06-22T10:17:26;95339.72;;;28.14;57.78
24280;BME280;12395;42.808;23.408;2023-06-22T10:19:52;95345.59;;;28.30;58.06
24280;BME280;12395;42.808;23.408;2023-06-22T10:22:17;95335.34;;;28.27;58.49
24280;BME280;12395;42.808;23.408;2023-06-22T10:24:43;95343.84;;;28.47;57.53
24280;BME280;12395;42.808;23.408;2023-06-22T10:27:12;95328.34;;;28.56;57.59
24280;BME280;12395;42.808;23.408;2023-06-22T10:29:38;95340.78;;;28.84;55.40
24280;BME280;12395;42.808;23.408;2023-06-22T10:32:05;95322.19;;;28.86;58.07
24280;BME280;12395;42.808;23.408;2023-06-22T10:34:33;95328.34;;;29.00;54.36
24280;BME280;12395;42.808;23.408;2023-06-22T10:36:59;95330.88;;;29.19;55.49
24280;BME280;12395;42.808;23.408;2023-06-22T10:39:24;95333.38;;;29.38;53.97
24280;BME280;12395;42.808;23.408;2023-06-22T10:41:50;95305.34;;;29.54;54.95
24280;BME280;12395;42.808;23.408;2023-06-22T10:44:15;95315.09;;;29.86;56.07
24280;BME280;12395;42.808;23.408;2023-06-22T10:46:42;95326.53;;;30.05;50.26
24280;BME280;12395;42.808;23.408;2023-06-22T10:49:08;95311.09;;;30.01;49.44
24280;BME280;12395;42.808;23.408;2023-06-22T10:51:33;95308.34;;;30.01;52.11
24280;BME280;12395;42.808;23.408;2023-06-22T10:53:59;95302.75;;;30.06;51.33
24280;BME280;12395;42.808;23.408;2023-06-22T10:56:24;95293.69;;;29.80;54.16
24280;BME280;12395;42.808;23.408;2023-06-22T10:58:49;95306.25;;;29.81;51.97
24280;BME280;12395;42.808;23.408;2023-06-22T11:01:15;95307.38;;;29.88;49.42
24280;BME280;12395;42.808;23.408;2023-06-22T11:03:40;95300.28;;;29.79;49.35
24280;BME280;12395;42.808;23.408;2023-06-22T11:06:05;95294.19;;;29.99;48.13
24280;BME280;12395;42.808;23.408;2023-06-22T11:08:31;95285.38;;;30.10;49.92
24280;BME280;12395;42.808;23.408;2023-06-22T11:10:56;95311.47;;;30.33;50.00
24280;BME280;12395;42.808;23.408;2023-06-22T11:13:22;95306.81;;;30.51;50.52
24280;BME280;12395;42.808;23.408;2023-06-22T11:15:47;95299.22;;;30.57;52.13
24280;BME280;12395;42.808;23.408;2023-06-22T11:18:12;95290.88;;;30.53;49.65
24280;BME280;12395;42.808;23.408;2023-06-22T11:20:38;95304.69;;;30.74;48.38
24280;BME280;12395;42.808;23.408;2023-06-22T11:23:06;95295.16;;;30.97;51.82
24280;BME280;12395;42.808;23.408;2023-06-22T11:25:33;95305.81;;;31.36;51.86
24280;BME280;12395;42.808;23.408;2023-06-22T11:28:03;95282.66;;;31.25;50.12
24280;BME280;12395;42.808;23.408;2023-06-22T11:30:29;95302.75;;;31.38;47.47
24280;BME280;12395;42.808;23.408;2023-06-22T11:32:56;95303.09;;;31.36;45.83
24280;BME280;12395;42.808;23.408;2023-06-22T11:35:21;95304.38;;;31.39;48.76
24280;BME280;12395;42.808;23.408;2023-06-22T11:37:46;95286.00;;;31.39;46.04
24280;BME280;12395;42.808;23.408;2023-06-22T11:40:12;95295.69;;;31.45;48.32
24280;BME280;12395;42.808;23.408;2023-06-22T11:42:37;95303.81;;;31.62;49.81
24280;BME280;12395;42.808;23.408;2023-06-22T11:45:04;95311.09;;;31.58;50.07
24280;BME280;12395;42.808;23.408;2023-06-22T11:47:30;95305.19;;;31.48;50.26
24280;BME280;12395;42.808;23.408;2023-06-22T11:49:56;95314.50;;;31.47;52.05
24280;BME280;12395;42.808;23.408;2023-06-22T11:52:23;95299.06;;;31.42;52.40
24280;BME280;12395;42.808;23.408;2023-06-22T11:54:48;95282.38;;;31.18;50.52
24280;BME280;12395;42.808;23.408;2023-06-22T11:57:13;95298.31;;;31.16;51.71
24280;BME280;12395;42.808;23.408;2023-06-22T11:59:39;95287.25;;;31.04;53.24
24280;BME280;12395;42.808;23.408;2023-06-22T12:02:05;95301.22;;;31.19;53.83
24280;BME280;12395;42.808;23.408;2023-06-22T12:04:37;95304.59;;;31.16;54.78
24280;BME280;12395;42.808;23.408;2023-06-22T12:07:03;95285.72;;;30.86;52.04
24280;BME280;12395;42.808;23.408;2023-06-22T12:09:29;95291.00;;;30.65;54.38
24280;BME280;12395;42.808;23.408;2023-06-22T12:11:55;95291.69;;;30.45;54.04
24280;BME280;12395;42.808;23.408;2023-06-22T12:14:21;95286.19;;;30.19;55.88
24280;BME280;12395;42.808;23.408;2023-06-22T12:16:50;95299.06;;;30.19;57.97
24280;BME280;12395;42.808;23.408;2023-06-22T12:19:17;95311.44;;;30.16;58.52
24280;BME280;12395;42.808;23.408;2023-06-22T12:21:44;95301.34;;;29.69;56.37
24280;BME280;12395;42.808;23.408;2023-06-22T12:24:11;95288.44;;;29.44;55.83
24280;BME280;12395;42.808;23.408;2023-06-22T12:26:36;95307.06;;;29.42;55.74
24280;BME280;12395;42.808;23.408;2023-06-22T12:29:02;95314.69;;;29.23;56.36
24280;BME280;12395;42.808;23.408;2023-06-22T12:31:27;95303.84;;;29.09;56.63
24280;BME280;12395;42.808;23.408;2023-06-22T12:33:53;95306.41;;;28.83;55.70
24280;BME280;12395;42.808;23.408;2023-06-22T12:36:18;95300.59;;;28.76;58.21
24280;BME280;12395;42.808;23.408;2023-06-22T12:38:44;95319.00;;;28.93;56.15
24280;BME280;12395;42.808;23.408;2023-06-22T12:41:09;95312.63;;;28.97;56.53
24280;BME280;12395;42.808;23.408;2023-06-22T12:43:34;95321.13;;;29.05;60.14
24280;BME280;12395;42.808;23.408;2023-06-22T12:46:00;95320.19;;;29.09;57.31
24280;BME280;12395;42.808;23.408;2023-06-22T12:48:27;95305.72;;;28.56;58.01
24280;BME280;12395;42.808;23.408;2023-06-22T12:50:52;95322.28;;;28.59;58.70
24280;BME280;12395;42.808;23.408;2023-06-22T12:53:18;95325.91;;;28.68;58.87
24280;BME280;12395;42.808;23.408;2023-06-22T12:55:43;95334.72;;;28.52;58.01
24280;BME280;12395;42.808;23.408;2023-06-22T12:58:09;95325.66;;;28.78;59.34
24280;BME280;12395;42.808;23.408;2023-06-22T13:00:34;95339.50;;;29.13;56.82
24280;BME280;12395;42.808;23.408;2023-06-22T13:03:00;95320.56;;;28.85;56.38
24280;BME280;12395;42.808;23.408;2023-06-22T13:05:25;95310.84;;;28.71;56.37